sensor_id;sensor_type;location;lat;lon;timestamp;P1;durP1;ratioP1;P2;durP2;ratioP2
71503;SDS011;59323;50.874;7.028;2023-07-30T00:01:05;5.50;;;2.60;;
71503;SDS011;59323;50.874;7.028;2023-07-30T00:03:30;7.93;;;3.10;;
71503;SDS011;59323;50.874;7.028;2023-07-30T00:05:56;7.40;;;2.83;;
71503;SDS011;59323;50.874;7.028;2023-07-30T00:08:21;5.43;;;2.37;;
71503;SDS011;59323;50.874;7.028;2023-07-30T00:10:47;4.95;;;2.72;;
71503;SDS011;59323;50.874;7.028;2023-07-30T00:13:13;5.53;;;2.70;;
71503;SDS011;59323;50.874;7.028;2023-07-30T00:15:38;4.87;;;2.57;;
71503;SDS011;59323;50.874;7.028;2023-07-30T00:18:03;4.83;;;2.60;;
71503;SDS011;59323;50.874;7.028;2023-07-30T00:20:29;4.60;;;2.70;;
71503;SDS011;59323;50.874;7.028;2023-07-30T00:22:54;5.20;;;2.47;;
71503;SDS011;59323;50.874;7.028;2023-07-30T00:25:19;7.40;;;2.30;;
71503;SDS011;59323;50.874;7.028;2023-07-30T00:27:45;4.63;;;2.30;;
71503;SDS011;59323;50.874;7.028;2023-07-30T00:30:10;5.77;;;2.30;;
71503;SDS011;59323;50.874;7.028;2023-07-30T00:32:36;6.43;;;2.70;;
71503;SDS011;59323;50.874;7.028;2023-07-30T00:35:05;5.90;;;3.03;;
71503;SDS011;59323;50.874;7.028;2023-07-30T00:37:31;3.95;;;2.17;;
71503;SDS011;59323;50.874;7.028;2023-07-30T00:39:56;5.33;;;2.67;;
71503;SDS011;59323;50.874;7.028;2023-07-30T00:42:22;6.07;;;3.17;;
71503;SDS011;59323;50.874;7.028;2023-07-30T00:44:47;7.17;;;2.87;;
71503;SDS011;59323;50.874;7.028;2023-07-30T00:47:12;6.07;;;3.27;;
71503;SDS011;59323;50.874;7.028;2023-07-30T00:49:38;7.07;;;3.53;;
71503;SDS011;59323;50.874;7.028;2023-07-30T00:52:04;7.30;;;2.63;;
71503;SDS011;59323;50.874;7.028;2023-07-30T00:54:30;7.20;;;3.30;;
71503;SDS011;59323;50.874;7.028;2023-07-30T00:56:55;6.20;;;3.27;;
71503;SDS011;59323;50.874;7.028;2023-07-30T00:59:20;8.07;;;3.35;;
71503;SDS011;59323;50.874;7.028;2023-07-30T01:01:46;6.77;;;3.53;;
71503;SDS011;59323;50.874;7.028;2023-07-30T01:04:13;6.30;;;3.13;;
71503;SDS011;59323;50.874;7.028;2023-07-30T01:06:42;9.10;;;4.18;;
71503;SDS011;59323;50.874;7.028;2023-07-30T01:09:08;6.70;;;3.40;;
71503;SDS011;59323;50.874;7.028;2023-07-30T01:11:33;8.60;;;3.58;;
71503;SDS011;59323;50.874;7.028;2023-07-30T01:14:00;5.82;;;3.45;;
71503;SDS011;59323;50.874;7.028;2023-07-30T01:16:26;8.50;;;3.80;;
71503;SDS011;59323;50.874;7.028;2023-07-30T01:18:51;7.60;;;3.80;;
71503;SDS011;59323;50.874;7.028;2023-07-30T01:21:17;5.77;;;2.97;;
71503;SDS011;59323;50.874;7.028;2023-07-30T01:23:42;6.30;;;2.80;;
71503;SDS011;59323;50.874;7.028;2023-07-30T01:26:08;5.73;;;2.80;;
71503;SDS011;59323;50.874;7.028;2023-07-30T01:28:37;5.45;;;2.83;;
71503;SDS011;59323;50.874;7.028;2023-07-30T01:31:09;5.82;;;2.78;;
71503;SDS011;59323;50.874;7.028;2023-07-30T01:33:39;6.03;;;3.08;;
71503;SDS011;59323;50.874;7.028;2023-07-30T01:36:05;7.67;;;2.83;;
71503;SDS011;59323;50.874;7.028;2023-07-30T01:38:33;5.47;;;3.05;;
71503;SDS011;59323;50.874;7.028;2023-07-30T01:40:59;4.85;;;2.50;;
71503;SDS011;59323;50.874;7.028;2023-07-30T01:43:25;5.35;;;2.55;;
71503;SDS011;59323;50.874;7.028;2023-07-30T01:45:51;7.17;;;2.80;;
71503;SDS011;59323;50.874;7.028;2023-07-30T01:48:16;6.10;;;2.63;;
71503;SDS011;59323;50.874;7.028;2023-07-30T01:50:41;5.67;;;2.47;;
71503;SDS011;59323;50.874;7.028;2023-07-30T01:53:08;5.72;;;2.05;;
71503;SDS011;59323;50.874;7.028;2023-07-30T01:55:33;8.20;;;2.17;;
71503;SDS011;59323;50.874;7.028;2023-07-30T01:57:59;6.43;;;2.20;;
71503;SDS011;59323;50.874;7.028;2023-07-30T02:00:24;4.20;;;1.73;;
71503;SDS011;59323;50.874;7.028;2023-07-30T02:02:49;7.40;;;1.90;;
71503;SDS011;59323;50.874;7.028;2023-07-30T02:05:15;10.30;;;2.30;;
71503;SDS011;59323;50.874;7.028;2023-07-30T02:07:40;7.47;;;1.93;;
71503;SDS011;59323;50.874;7.028;2023-07-30T02:10:05;7.23;;;2.30;;
71503;SDS011;59323;50.874;7.028;2023-07-30T02:12:31;5.35;;;2.47;;
71503;SDS011;59323;50.874;7.028;2023-07-30T02:14:56;6.37;;;3.00;;
71503;SDS011;59323;50.874;7.028;2023-07-30T02:17:22;9.27;;;2.60;;
71503;SDS011;59323;50.874;7.028;2023-07-30T02:19:47;7.57;;;2.13;;
71503;SDS011;59323;50.874;7.028;2023-07-30T02:22:13;4.82;;;2.28;;
71503;SDS011;59323;50.874;7.028;2023-07-30T02:24:38;6.77;;;2.80;;
71503;SDS011;59323;50.874;7.028;2023-07-30T02:27:03;6.77;;;2.27;;
71503;SDS011;59323;50.874;7.028;2023-07-30T02:29:29;7.07;;;2.35;;
71503;SDS011;59323;50.874;7.028;2023-07-30T02:31:56;5.97;;;2.35;;
71503;SDS011;59323;50.874;7.028;2023-07-30T02:34:21;7.53;;;2.63;;
71503;SDS011;59323;50.874;7.028;2023-07-30T02:36:47;5.53;;;2.10;;
71503;SDS011;59323;50.874;7.028;2023-07-30T02:39:14;4.03;;;1.98;;
71503;SDS011;59323;50.874;7.028;2023-07-30T02:41:39;5.40;;;1.87;;
71503;SDS011;59323;50.874;7.028;2023-07-30T02:44:04;4.80;;;2.23;;
71503;SDS011;59323;50.874;7.028;2023-07-30T02:46:30;6.00;;;2.03;;
71503;SDS011;59323;50.874;7.028;2023-07-30T02:48:55;5.63;;;2.17;;
71503;SDS011;59323;50.874;7.028;2023-07-30T02:51:20;4.53;;;1.80;;
71503;SDS011;59323;50.874;7.028;2023-07-30T02:53:46;5.28;;;2.00;;
71503;SDS011;59323;50.874;7.028;2023-07-30T02:56:11;6.43;;;2.10;;
71503;SDS011;59323;50.874;7.028;2023-07-30T02:58:36;4.00;;;1.67;;
71503;SDS011;59323;50.874;7.028;2023-07-30T03:01:06;4.83;;;1.90;;
71503;SDS011;59323;50.874;7.028;2023-07-30T03:03:32;5.57;;;1.85;;
71503;SDS011;59323;50.874;7.028;2023-07-30T03:05:57;7.07;;;1.93;;
71503;SDS011;59323;50.874;7.028;2023-07-30T03:08:23;5.70;;;1.97;;
71503;SDS011;59323;50.874;7.028;2023-07-30T03:10:48;4.00;;;1.80;;
71503;SDS011;59323;50.874;7.028;2023-07-30T03:13:13;4.33;;;1.80;;
71503;SDS011;59323;50.874;7.028;2023-07-30T03:15:39;5.17;;;1.83;;
71503;SDS011;59323;50.874;7.028;2023-07-30T03:18:04;6.40;;;2.07;;
71503;SDS011;59323;50.874;7.028;2023-07-30T03:20:30;6.07;;;2.30;;
71503;SDS011;59323;50.874;7.028;2023-07-30T03:22:55;4.50;;;1.90;;
71503;SDS011;59323;50.874;7.028;2023-07-30T03:25:20;6.45;;;2.00;;
71503;SDS011;59323;50.874;7.028;2023-07-30T03:27:46;5.80;;;2.30;;
71503;SDS011;59323;50.874;7.028;2023-07-30T03:30:11;4.50;;;1.60;;
71503;SDS011;59323;50.874;7.028;2023-07-30T03:32:36;8.07;;;1.90;;
71503;SDS011;59323;50.874;7.028;2023-07-30T03:35:02;4.57;;;1.83;;
71503;SDS011;59323;50.874;7.028;2023-07-30T03:37:27;6.30;;;2.22;;
71503;SDS011;59323;50.874;7.028;2023-07-30T03:39:52;4.83;;;2.10;;
71503;SDS011;59323;50.874;7.028;2023-07-30T03:42:18;4.43;;;1.83;;
71503;SDS011;59323;50.874;7.028;2023-07-30T03:44:43;6.10;;;1.93;;
71503;SDS011;59323;50.874;7.028;2023-07-30T03:47:08;4.77;;;2.03;;
71503;SDS011;59323;50.874;7.028;2023-07-30T03:49:34;4.23;;;1.77;;
71503;SDS011;59323;50.874;7.028;2023-07-30T03:51:59;6.27;;;2.10;;
71503;SDS011;59323;50.874;7.028;2023-07-30T03:54:24;7.07;;;2.03;;
71503;SDS011;59323;50.874;7.028;2023-07-30T03:56:50;7.00;;;1.90;;
71503;SDS011;59323;50.874;7.028;2023-07-30T03:59:15;5.20;;;1.90;;
71503;SDS011;59323;50.874;7.028;2023-07-30T04:01:40;6.00;;;2.10;;
71503;SDS011;59323;50.874;7.028;2023-07-30T04:04:08;5.65;;;1.95;;
71503;SDS011;59323;50.874;7.028;2023-07-30T04:06:34;5.47;;;1.73;;
71503;SDS011;59323;50.874;7.028;2023-07-30T04:08:59;4.28;;;2.00;;
71503;SDS011;59323;50.874;7.028;2023-07-30T04:11:27;8.93;;;2.20;;
71503;SDS011;59323;50.874;7.028;2023-07-30T04:13:52;6.55;;;1.75;;
71503;SDS011;59323;50.874;7.028;2023-07-30T04:16:17;6.00;;;1.60;;
71503;SDS011;59323;50.874;7.028;2023-07-30T04:18:43;7.63;;;1.77;;
71503;SDS011;59323;50.874;7.028;2023-07-30T04:21:08;7.50;;;2.20;;
71503;SDS011;59323;50.874;7.028;2023-07-30T04:23:35;9.57;;;2.65;;
71503;SDS011;59323;50.874;7.028;2023-07-30T04:26:00;8.00;;;1.70;;
71503;SDS011;59323;50.874;7.028;2023-07-30T04:28:26;6.73;;;1.67;;
71503;SDS011;59323;50.874;7.028;2023-07-30T04:30:51;4.90;;;1.90;;
71503;SDS011;59323;50.874;7.028;2023-07-30T04:33:16;7.50;;;1.80;;
71503;SDS011;59323;50.874;7.028;2023-07-30T04:35:42;6.43;;;1.87;;
71503;SDS011;59323;50.874;7.028;2023-07-30T04:38:07;5.95;;;1.67;;
71503;SDS011;59323;50.874;7.028;2023-07-30T04:40:33;5.17;;;1.60;;
71503;SDS011;59323;50.874;7.028;2023-07-30T04:42:58;9.43;;;2.33;;
71503;SDS011;59323;50.874;7.028;2023-07-30T04:45:24;4.37;;;1.53;;
71503;SDS011;59323;50.874;7.028;2023-07-30T04:47:49;6.73;;;1.80;;
71503;SDS011;59323;50.874;7.028;2023-07-30T04:50:14;6.00;;;1.77;;
71503;SDS011;59323;50.874;7.028;2023-07-30T04:52:40;6.30;;;1.80;;
71503;SDS011;59323;50.874;7.028;2023-07-30T04:55:05;6.73;;;1.80;;
71503;SDS011;59323;50.874;7.028;2023-07-30T04:57:31;6.40;;;2.35;;
71503;SDS011;59323;50.874;7.028;2023-07-30T04:59:56;5.10;;;1.87;;
71503;SDS011;59323;50.874;7.028;2023-07-30T05:02:22;7.93;;;1.90;;
71503;SDS011;59323;50.874;7.028;2023-07-30T05:04:47;5.93;;;1.60;;
71503;SDS011;59323;50.874;7.028;2023-07-30T05:07:12;7.68;;;1.88;;
71503;SDS011;59323;50.874;7.028;2023-07-30T05:09:38;8.23;;;1.90;;
71503;SDS011;59323;50.874;7.028;2023-07-30T05:12:06;8.37;;;1.77;;
71503;SDS011;59323;50.874;7.028;2023-07-30T05:14:32;6.95;;;1.58;;
71503;SDS011;59323;50.874;7.028;2023-07-30T05:16:57;6.93;;;1.83;;
71503;SDS011;59323;50.874;7.028;2023-07-30T05:19:34;6.60;;;1.67;;
71503;SDS011;59323;50.874;7.028;2023-07-30T05:22:00;9.25;;;1.70;;
71503;SDS011;59323;50.874;7.028;2023-07-30T05:24:26;7.07;;;1.80;;
71503;SDS011;59323;50.874;7.028;2023-07-30T05:26:52;6.35;;;1.50;;
71503;SDS011;59323;50.874;7.028;2023-07-30T05:29:17;5.30;;;1.73;;
71503;SDS011;59323;50.874;7.028;2023-07-30T05:31:43;9.73;;;1.70;;
71503;SDS011;59323;50.874;7.028;2023-07-30T05:34:08;7.20;;;1.50;;
71503;SDS011;59323;50.874;7.028;2023-07-30T05:36:33;6.17;;;1.30;;
71503;SDS011;59323;50.874;7.028;2023-07-30T05:38:59;7.00;;;1.83;;
71503;SDS011;59323;50.874;7.028;2023-07-30T05:41:24;8.37;;;2.30;;
71503;SDS011;59323;50.874;7.028;2023-07-30T05:43:49;8.37;;;1.30;;
71503;SDS011;59323;50.874;7.028;2023-07-30T05:46:15;6.87;;;1.47;;
71503;SDS011;59323;50.874;7.028;2023-07-30T05:48:40;6.27;;;1.50;;
71503;SDS011;59323;50.874;7.028;2023-07-30T05:51:06;10.30;;;1.80;;
71503;SDS011;59323;50.874;7.028;2023-07-30T05:53:31;6.53;;;1.40;;
71503;SDS011;59323;50.874;7.028;2023-07-30T05:55:56;7.90;;;1.43;;
71503;SDS011;59323;50.874;7.028;2023-07-30T05:58:22;7.93;;;1.70;;
71503;SDS011;59323;50.874;7.028;2023-07-30T06:00:47;5.03;;;1.43;;
71503;SDS011;59323;50.874;7.028;2023-07-30T06:03:12;9.50;;;1.77;;
71503;SDS011;59323;50.874;7.028;2023-07-30T06:05:38;9.73;;;1.70;;
71503;SDS011;59323;50.874;7.028;2023-07-30T06:08:05;6.45;;;1.80;;
71503;SDS011;59323;50.874;7.028;2023-07-30T06:10:31;7.63;;;1.67;;
71503;SDS011;59323;50.874;7.028;2023-07-30T06:12:59;8.27;;;2.13;;
71503;SDS011;59323;50.874;7.028;2023-07-30T06:15:24;8.60;;;2.07;;
71503;SDS011;59323;50.874;7.028;2023-07-30T06:17:50;7.40;;;1.73;;
71503;SDS011;59323;50.874;7.028;2023-07-30T06:20:15;6.07;;;1.27;;
71503;SDS011;59323;50.874;7.028;2023-07-30T06:22:40;5.37;;;1.50;;
71503;SDS011;59323;50.874;7.028;2023-07-30T06:25:06;6.00;;;1.60;;
71503;SDS011;59323;50.874;7.028;2023-07-30T06:27:31;8.27;;;1.70;;
71503;SDS011;59323;50.874;7.028;2023-07-30T06:29:57;7.03;;;2.10;;
71503;SDS011;59323;50.874;7.028;2023-07-30T06:32:22;7.27;;;2.07;;
71503;SDS011;59323;50.874;7.028;2023-07-30T06:34:47;6.90;;;1.80;;
71503;SDS011;59323;50.874;7.028;2023-07-30T06:37:13;8.63;;;2.80;;
71503;SDS011;59323;50.874;7.028;2023-07-30T06:39:38;8.43;;;2.60;;
71503;SDS011;59323;50.874;7.028;2023-07-30T06:42:03;7.23;;;2.20;;
71503;SDS011;59323;50.874;7.028;2023-07-30T06:44:29;5.80;;;2.20;;
71503;SDS011;59323;50.874;7.028;2023-07-30T06:46:54;6.20;;;2.00;;
71503;SDS011;59323;50.874;7.028;2023-07-30T06:49:19;5.53;;;1.97;;
71503;SDS011;59323;50.874;7.028;2023-07-30T06:51:45;8.15;;;1.85;;
71503;SDS011;59323;50.874;7.028;2023-07-30T06:54:10;5.80;;;1.87;;
71503;SDS011;59323;50.874;7.028;2023-07-30T06:56:36;6.93;;;2.23;;
71503;SDS011;59323;50.874;7.028;2023-07-30T06:59:01;10.37;;;2.23;;
71503;SDS011;59323;50.874;7.028;2023-07-30T07:01:28;5.75;;;2.25;;
71503;SDS011;59323;50.874;7.028;2023-07-30T07:03:53;7.10;;;1.90;;
71503;SDS011;59323;50.874;7.028;2023-07-30T07:06:18;8.37;;;2.07;;
71503;SDS011;59323;50.874;7.028;2023-07-30T07:08:44;6.70;;;1.75;;
71503;SDS011;59323;50.874;7.028;2023-07-30T07:11:09;4.90;;;1.90;;
71503;SDS011;59323;50.874;7.028;2023-07-30T07:13:35;10.30;;;2.20;;
71503;SDS011;59323;50.874;7.028;2023-07-30T07:16:00;8.77;;;1.83;;
71503;SDS011;59323;50.874;7.028;2023-07-30T07:18:25;6.33;;;1.80;;
71503;SDS011;59323;50.874;7.028;2023-07-30T07:20:51;5.07;;;1.07;;
71503;SDS011;59323;50.874;7.028;2023-07-30T07:23:16;5.15;;;1.60;;
71503;SDS011;59323;50.874;7.028;2023-07-30T07:25:41;4.20;;;1.10;;
71503;SDS011;59323;50.874;7.028;2023-07-30T07:28:09;7.53;;;1.50;;
71503;SDS011;59323;50.874;7.028;2023-07-30T07:30:35;5.17;;;1.47;;
71503;SDS011;59323;50.874;7.028;2023-07-30T07:33:01;5.97;;;1.20;;
71503;SDS011;59323;50.874;7.028;2023-07-30T07:35:27;6.17;;;1.37;;
71503;SDS011;59323;50.874;7.028;2023-07-30T07:37:52;4.15;;;1.08;;
71503;SDS011;59323;50.874;7.028;2023-07-30T07:40:18;3.77;;;1.40;;
71503;SDS011;59323;50.874;7.028;2023-07-30T07:42:43;5.27;;;1.10;;
71503;SDS011;59323;50.874;7.028;2023-07-30T07:45:08;6.03;;;1.80;;
71503;SDS011;59323;50.874;7.028;2023-07-30T07:47:34;5.28;;;1.45;;
71503;SDS011;59323;50.874;7.028;2023-07-30T07:49:59;5.57;;;1.30;;
71503;SDS011;59323;50.874;7.028;2023-07-30T07:52:25;6.83;;;1.63;;
71503;SDS011;59323;50.874;7.028;2023-07-30T07:54:50;6.43;;;1.67;;
71503;SDS011;59323;50.874;7.028;2023-07-30T07:57:15;6.63;;;1.35;;
71503;SDS011;59323;50.874;7.028;2023-07-30T07:59:41;8.73;;;1.50;;
71503;SDS011;59323;50.874;7.028;2023-07-30T08:02:09;8.70;;;1.38;;
71503;SDS011;59323;50.874;7.028;2023-07-30T08:04:35;5.70;;;1.03;;
71503;SDS011;59323;50.874;7.028;2023-07-30T08:07:01;8.98;;;1.77;;
71503;SDS011;59323;50.874;7.028;2023-07-30T08:09:28;6.87;;;1.73;;
71503;SDS011;59323;50.874;7.028;2023-07-30T08:11:57;6.63;;;2.00;;
71503;SDS011;59323;50.874;7.028;2023-07-30T08:14:22;8.60;;;1.70;;
71503;SDS011;59323;50.874;7.028;2023-07-30T08:16:48;8.98;;;1.80;;
71503;SDS011;59323;50.874;7.028;2023-07-30T08:19:13;8.57;;;1.80;;
71503;SDS011;59323;50.874;7.028;2023-07-30T08:21:42;5.67;;;1.30;;
71503;SDS011;59323;50.874;7.028;2023-07-30T08:24:07;6.93;;;1.80;;
71503;SDS011;59323;50.874;7.028;2023-07-30T08:26:32;10.87;;;1.50;;
71503;SDS011;59323;50.874;7.028;2023-07-30T08:28:58;9.77;;;1.90;;
71503;SDS011;59323;50.874;7.028;2023-07-30T08:31:23;7.38;;;1.50;;
71503;SDS011;59323;50.874;7.028;2023-07-30T08:33:49;10.37;;;2.10;;
71503;SDS011;59323;50.874;7.028;2023-07-30T08:36:14;6.28;;;1.67;;
71503;SDS011;59323;50.874;7.028;2023-07-30T08:38:40;8.73;;;1.77;;
71503;SDS011;59323;50.874;7.028;2023-07-30T08:41:05;7.43;;;1.97;;
71503;SDS011;59323;50.874;7.028;2023-07-30T08:43:31;11.27;;;1.97;;
71503;SDS011;59323;50.874;7.028;2023-07-30T08:45:56;8.93;;;1.93;;
71503;SDS011;59323;50.874;7.028;2023-07-30T08:48:22;9.50;;;1.80;;
71503;SDS011;59323;50.874;7.028;2023-07-30T08:50:48;10.15;;;1.88;;
71503;SDS011;59323;50.874;7.028;2023-07-30T08:53:14;6.93;;;1.63;;
71503;SDS011;59323;50.874;7.028;2023-07-30T08:55:40;11.27;;;2.20;;
71503;SDS011;59323;50.874;7.028;2023-07-30T08:58:06;10.60;;;1.70;;
71503;SDS011;59323;50.874;7.028;2023-07-30T09:00:34;9.63;;;2.63;;
71503;SDS011;59323;50.874;7.028;2023-07-30T09:03:02;9.10;;;1.98;;
71503;SDS011;59323;50.874;7.028;2023-07-30T09:05:29;10.30;;;2.05;;
71503;SDS011;59323;50.874;7.028;2023-07-30T09:07:56;12.95;;;2.40;;
71503;SDS011;59323;50.874;7.028;2023-07-30T09:10:22;8.07;;;1.90;;
71503;SDS011;59323;50.874;7.028;2023-07-30T09:12:54;7.72;;;1.80;;
71503;SDS011;59323;50.874;7.028;2023-07-30T09:15:28;10.20;;;2.17;;
71503;SDS011;59323;50.874;7.028;2023-07-30T09:17:56;8.60;;;2.20;;
71503;SDS011;59323;50.874;7.028;2023-07-30T09:20:21;11.23;;;2.10;;
71503;SDS011;59323;50.874;7.028;2023-07-30T09:22:46;15.57;;;2.90;;
71503;SDS011;59323;50.874;7.028;2023-07-30T09:25:14;6.28;;;2.10;;
71503;SDS011;59323;50.874;7.028;2023-07-30T09:27:41;7.73;;;1.80;;
71503;SDS011;59323;50.874;7.028;2023-07-30T09:30:06;9.52;;;1.73;;
71503;SDS011;59323;50.874;7.028;2023-07-30T09:32:33;9.67;;;2.00;;
71503;SDS011;59323;50.874;7.028;2023-07-30T09:35:06;11.93;;;1.80;;
71503;SDS011;59323;50.874;7.028;2023-07-30T09:37:39;9.02;;;1.90;;
71503;SDS011;59323;50.874;7.028;2023-07-30T09:40:10;10.60;;;1.83;;
71503;SDS011;59323;50.874;7.028;2023-07-30T09:42:38;8.93;;;2.30;;
71503;SDS011;59323;50.874;7.028;2023-07-30T09:45:06;9.13;;;1.80;;
71503;SDS011;59323;50.874;7.028;2023-07-30T09:47:33;9.45;;;1.65;;
71503;SDS011;59323;50.874;7.028;2023-07-30T09:49:59;7.43;;;2.10;;
71503;SDS011;59323;50.874;7.028;2023-07-30T09:52:24;6.63;;;1.30;;
71503;SDS011;59323;50.874;7.028;2023-07-30T09:54:49;6.60;;;1.60;;
71503;SDS011;59323;50.874;7.028;2023-07-30T09:57:17;8.65;;;1.60;;
71503;SDS011;59323;50.874;7.028;2023-07-30T09:59:42;6.17;;;1.80;;
71503;SDS011;59323;50.874;7.028;2023-07-30T10:02:08;8.48;;;1.88;;
71503;SDS011;59323;50.874;7.028;2023-07-30T10:04:37;6.90;;;2.23;;
71503;SDS011;59323;50.874;7.028;2023-07-30T10:07:08;7.63;;;1.67;;
71503;SDS011;59323;50.874;7.028;2023-07-30T10:09:39;6.72;;;1.20;;
71503;SDS011;59323;50.874;7.028;2023-07-30T10:12:31;7.80;;;1.80;;
71503;SDS011;59323;50.874;7.028;2023-07-30T10:14:57;9.20;;;1.60;;
71503;SDS011;59323;50.874;7.028;2023-07-30T10:17:22;9.40;;;1.70;;
71503;SDS011;59323;50.874;7.028;2023-07-30T10:19:49;5.27;;;1.40;;
71503;SDS011;59323;50.874;7.028;2023-07-30T10:22:20;7.53;;;1.50;;
71503;SDS011;59323;50.874;7.028;2023-07-30T10:25:09;6.38;;;1.30;;
71503;SDS011;59323;50.874;7.028;2023-07-30T10:27:38;8.38;;;2.13;;
71503;SDS011;59323;50.874;7.028;2023-07-30T10:30:09;6.87;;;1.67;;
71503;SDS011;59323;50.874;7.028;2023-07-30T10:32:41;10.40;;;2.03;;
71503;SDS011;59323;50.874;7.028;2023-07-30T10:35:38;7.38;;;1.92;;
71503;SDS011;59323;50.874;7.028;2023-07-30T10:38:51;6.80;;;1.50;;
71503;SDS011;59323;50.874;7.028;2023-07-30T10:41:00;8.23;;;1.73;;
71503;SDS011;59323;50.874;7.028;2023-07-30T10:43:41;7.10;;;1.30;;
71503;SDS011;59323;50.874;7.028;2023-07-30T10:46:08;5.65;;;1.35;;
71503;SDS011;59323;50.874;7.028;2023-07-30T10:48:37;10.00;;;1.90;;
71503;SDS011;59323;50.874;7.028;2023-07-30T10:51:05;9.02;;;1.80;;
71503;SDS011;59323;50.874;7.028;2023-07-30T10:53:32;13.82;;;2.35;;
71503;SDS011;59323;50.874;7.028;2023-07-30T10:55:58;8.87;;;1.70;;
71503;SDS011;59323;50.874;7.028;2023-07-30T10:58:26;7.68;;;1.80;;
71503;SDS011;59323;50.874;7.028;2023-07-30T11:01:10;8.05;;;1.80;;
71503;SDS011;59323;50.874;7.028;2023-07-30T11:03:36;7.03;;;1.60;;
71503;SDS011;59323;50.874;7.028;2023-07-30T11:06:03;6.77;;;1.27;;
71503;SDS011;59323;50.874;7.028;2023-07-30T11:08:34;6.75;;;1.58;;
71503;SDS011;59323;50.874;7.028;2023-07-30T11:11:03;9.67;;;1.73;;
71503;SDS011;59323;50.874;7.028;2023-07-30T11:13:30;6.97;;;1.30;;
71503;SDS011;59323;50.874;7.028;2023-07-30T11:16:20;7.68;;;1.45;;
71503;SDS011;59323;50.874;7.028;2023-07-30T11:18:45;6.93;;;1.67;;
71503;SDS011;59323;50.874;7.028;2023-07-30T11:21:24;6.55;;;1.48;;
71503;SDS011;59323;50.874;7.028;2023-07-30T11:23:50;6.35;;;1.50;;
71503;SDS011;59323;50.874;7.028;2023-07-30T11:26:21;3.47;;;1.10;;
71503;SDS011;59323;50.874;7.028;2023-07-30T11:32:28;8.20;;;1.43;;
71503;SDS011;59323;50.874;7.028;2023-07-30T11:34:55;8.60;;;1.55;;
71503;SDS011;59323;50.874;7.028;2023-07-30T11:37:28;6.78;;;1.42;;
71503;SDS011;59323;50.874;7.028;2023-07-30T11:39:54;4.23;;;1.43;;
71503;SDS011;59323;50.874;7.028;2023-07-30T11:42:25;5.90;;;1.73;;
71503;SDS011;59323;50.874;7.028;2023-07-30T11:44:58;6.97;;;1.95;;
71503;SDS011;59323;50.874;7.028;2023-07-30T11:54:18;5.70;;;1.20;;
71503;SDS011;59323;50.874;7.028;2023-07-30T11:56:53;4.07;;;1.60;;
71503;SDS011;59323;50.874;7.028;2023-07-30T11:59:19;7.65;;;1.17;;
71503;SDS011;59323;50.874;7.028;2023-07-30T12:01:48;4.53;;;1.37;;
71503;SDS011;59323;50.874;7.028;2023-07-30T12:04:52;4.40;;;0.90;;
71503;SDS011;59323;50.874;7.028;2023-07-30T12:07:58;5.85;;;1.20;;
71503;SDS011;59323;50.874;7.028;2023-07-30T12:10:53;5.03;;;1.48;;
71503;SDS011;59323;50.874;7.028;2023-07-30T12:28:45;5.80;;;1.33;;
71503;SDS011;59323;50.874;7.028;2023-07-30T12:31:11;7.47;;;1.83;;
71503;SDS011;59323;50.874;7.028;2023-07-30T12:33:36;9.93;;;2.20;;
71503;SDS011;59323;50.874;7.028;2023-07-30T12:36:02;7.90;;;1.43;;
71503;SDS011;59323;50.874;7.028;2023-07-30T12:38:27;5.40;;;1.20;;
71503;SDS011;59323;50.874;7.028;2023-07-30T12:40:52;7.77;;;1.20;;
71503;SDS011;59323;50.874;7.028;2023-07-30T12:43:18;9.03;;;1.70;;
71503;SDS011;59323;50.874;7.028;2023-07-30T12:45:47;5.50;;;1.23;;
71503;SDS011;59323;50.874;7.028;2023-07-30T12:48:14;9.30;;;1.50;;
71503;SDS011;59323;50.874;7.028;2023-07-30T12:50:45;6.15;;;1.10;;
71503;SDS011;59323;50.874;7.028;2023-07-30T12:53:16;5.57;;;1.50;;
71503;SDS011;59323;50.874;7.028;2023-07-30T12:55:42;5.03;;;1.47;;
71503;SDS011;59323;50.874;7.028;2023-07-30T12:58:11;5.57;;;1.58;;
71503;SDS011;59323;50.874;7.028;2023-07-30T13:00:37;6.90;;;1.20;;
71503;SDS011;59323;50.874;7.028;2023-07-30T13:03:03;6.75;;;1.70;;
71503;SDS011;59323;50.874;7.028;2023-07-30T13:05:38;4.90;;;1.40;;
71503;SDS011;59323;50.874;7.028;2023-07-30T13:08:04;10.65;;;1.85;;
71503;SDS011;59323;50.874;7.028;2023-07-30T13:10:30;7.20;;;1.55;;
71503;SDS011;59323;50.874;7.028;2023-07-30T13:12:56;7.87;;;1.50;;
71503;SDS011;59323;50.874;7.028;2023-07-30T13:15:21;4.83;;;1.43;;
71503;SDS011;59323;50.874;7.028;2023-07-30T13:17:46;5.77;;;1.40;;
71503;SDS011;59323;50.874;7.028;2023-07-30T13:20:12;5.63;;;1.63;;
71503;SDS011;59323;50.874;7.028;2023-07-30T13:22:37;7.13;;;1.50;;
71503;SDS011;59323;50.874;7.028;2023-07-30T13:25:02;6.80;;;1.63;;
71503;SDS011;59323;50.874;7.028;2023-07-30T13:27:28;7.00;;;1.43;;
71503;SDS011;59323;50.874;7.028;2023-07-30T13:29:53;6.73;;;1.73;;
71503;SDS011;59323;50.874;7.028;2023-07-30T13:32:19;5.83;;;1.83;;
71503;SDS011;59323;50.874;7.028;2023-07-30T13:34:44;6.50;;;1.20;;
71503;SDS011;59323;50.874;7.028;2023-07-30T13:37:10;8.23;;;1.63;;
71503;SDS011;59323;50.874;7.028;2023-07-30T13:39:43;6.23;;;1.97;;
71503;SDS011;59323;50.874;7.028;2023-07-30T13:42:13;7.13;;;1.70;;
71503;SDS011;59323;50.874;7.028;2023-07-30T13:44:41;6.17;;;1.63;;
71503;SDS011;59323;50.874;7.028;2023-07-30T13:47:08;8.02;;;1.90;;
71503;SDS011;59323;50.874;7.028;2023-07-30T13:49:36;7.13;;;1.52;;
71503;SDS011;59323;50.874;7.028;2023-07-30T13:52:01;7.05;;;1.55;;
71503;SDS011;59323;50.874;7.028;2023-07-30T13:54:40;6.82;;;2.00;;
71503;SDS011;59323;50.874;7.028;2023-07-30T13:57:07;8.27;;;1.80;;
71503;SDS011;59323;50.874;7.028;2023-07-30T13:59:36;6.63;;;1.73;;
71503;SDS011;59323;50.874;7.028;2023-07-30T14:02:06;5.78;;;1.55;;
71503;SDS011;59323;50.874;7.028;2023-07-30T14:04:32;5.53;;;1.27;;
71503;SDS011;59323;50.874;7.028;2023-07-30T14:07:00;3.70;;;1.20;;
71503;SDS011;59323;50.874;7.028;2023-07-30T14:09:25;4.43;;;1.20;;
71503;SDS011;59323;50.874;7.028;2023-07-30T14:12:13;6.93;;;1.23;;
71503;SDS011;59323;50.874;7.028;2023-07-30T14:14:40;4.10;;;1.10;;
71503;SDS011;59323;50.874;7.028;2023-07-30T14:17:07;6.63;;;1.48;;
71503;SDS011;59323;50.874;7.028;2023-07-30T14:19:33;5.97;;;1.57;;
71503;SDS011;59323;50.874;7.028;2023-07-30T14:22:00;7.10;;;1.63;;
71503;SDS011;59323;50.874;7.028;2023-07-30T14:24:26;5.75;;;1.25;;
71503;SDS011;59323;50.874;7.028;2023-07-30T14:26:52;5.03;;;1.50;;
71503;SDS011;59323;50.874;7.028;2023-07-30T14:29:17;4.53;;;1.57;;
71503;SDS011;59323;50.874;7.028;2023-07-30T14:31:42;4.83;;;1.40;;
71503;SDS011;59323;50.874;7.028;2023-07-30T14:34:08;4.50;;;1.20;;
71503;SDS011;59323;50.874;7.028;2023-07-30T14:36:33;8.57;;;1.27;;
71503;SDS011;59323;50.874;7.028;2023-07-30T14:38:59;4.17;;;1.10;;
71503;SDS011;59323;50.874;7.028;2023-07-30T14:41:24;5.60;;;1.17;;
71503;SDS011;59323;50.874;7.028;2023-07-30T14:43:49;8.57;;;1.00;;
71503;SDS011;59323;50.874;7.028;2023-07-30T14:46:18;6.18;;;1.25;;
71503;SDS011;59323;50.874;7.028;2023-07-30T14:48:43;5.67;;;1.50;;
71503;SDS011;59323;50.874;7.028;2023-07-30T14:51:09;7.07;;;1.37;;
71503;SDS011;59323;50.874;7.028;2023-07-30T14:53:34;5.67;;;1.10;;
71503;SDS011;59323;50.874;7.028;2023-07-30T14:56:00;7.13;;;1.45;;
71503;SDS011;59323;50.874;7.028;2023-07-30T14:58:25;6.03;;;1.47;;
71503;SDS011;59323;50.874;7.028;2023-07-30T15:00:51;5.30;;;1.70;;
71503;SDS011;59323;50.874;7.028;2023-07-30T15:03:16;6.80;;;1.20;;
71503;SDS011;59323;50.874;7.028;2023-07-30T15:05:42;3.00;;;1.10;;
71503;SDS011;59323;50.874;7.028;2023-07-30T15:08:07;6.90;;;1.40;;
71503;SDS011;59323;50.874;7.028;2023-07-30T15:10:32;6.80;;;1.67;;
71503;SDS011;59323;50.874;7.028;2023-07-30T15:12:58;4.87;;;0.90;;